sensor_id;sensor_type;location;lat;lon;timestamp;temperature;humidity
51500;DHT22;39101;53.478;6.158;2023-02-04T00:01:03;7.20;99.90
51500;DHT22;39101;53.478;6.158;2023-02-04T00:03:29;7.20;99.90
51500;DHT22;39101;53.478;6.158;2023-02-04T00:05:55;7.10;99.90
51500;DHT22;39101;53.478;6.158;2023-02-04T00:08:20;7.20;99.90
51500;DHT22;39101;53.478;6.158;2023-02-04T00:10:46;7.30;99.90
51500;DHT22;39101;53.478;6.158;2023-02-04T00:13:12;7.20;99.90
51500;DHT22;39101;53.478;6.158;2023-02-04T00:15:37;7.10;99.90
51500;DHT22;39101;53.478;6.158;2023-02-04T00:18:03;7.10;99.90
51500;DHT22;39101;53.478;6.158;2023-02-04T00:20:30;7.10;99.90
51500;DHT22;39101;53.478;6.158;2023-02-04T00:22:55;7.30;99.90
51500;DHT22;39101;53.478;6.158;2023-02-04T00:25:21;7.20;99.90
51500;DHT22;39101;53.478;6.158;2023-02-04T00:27:47;7.10;99.90
51500;DHT22;39101;53.478;6.158;2023-02-04T00:30:13;7.10;99.90
51500;DHT22;39101;53.478;6.158;2023-02-04T00:32:39;7.10;99.90
51500;DHT22;39101;53.478;6.158;2023-02-04T00:35:05;7.20;99.90
51500;DHT22;39101;53.478;6.158;2023-02-04T00:37:31;7.10;99.90
51500;DHT22;39101;53.478;6.158;2023-02-04T00:39:57;7.10;99.90
51500;DHT22;39101;53.478;6.158;2023-02-04T00:42:22;7.20;99.90
51500;DHT22;39101;53.478;6.158;2023-02-04T00:44:48;7.20;99.90
51500;DHT22;39101;53.478;6.158;2023-02-04T00:47:13;7.20;99.90
51500;DHT22;39101;53.478;6.158;2023-02-04T00:49:39;7.20;99.90
51500;DHT22;39101;53.478;6.158;2023-02-04T00:52:05;7.10;99.90
51500;DHT22;39101;53.478;6.158;2023-02-04T00:54:30;7.10;99.90
51500;DHT22;39101;53.478;6.158;2023-02-04T00:56:56;7.20;99.90
51500;DHT22;39101;53.478;6.158;2023-02-04T00:59:22;7.10;99.90
51500;DHT22;39101;53.478;6.158;2023-02-04T01:01:48;7.10;99.90
51500;DHT22;39101;53.478;6.158;2023-02-04T01:04:16;7.20;99.90
51500;DHT22;39101;53.478;6.158;2023-02-04T01:06:41;7.00;99.90
51500;DHT22;39101;53.478;6.158;2023-02-04T01:09:07;7.30;99.90
51500;DHT22;39101;53.478;6.158;2023-02-04T01:11:33;6.90;99.90
51500;DHT22;39101;53.478;6.158;2023-02-04T01:13:59;7.20;99.90
51500;DHT22;39101;53.478;6.158;2023-02-04T01:16:25;7.00;99.90
51500;DHT22;39101;53.478;6.158;2023-02-04T01:18:50;7.00;99.90
51500;DHT22;39101;53.478;6.158;2023-02-04T01:21:17;6.90;99.90
51500;DHT22;39101;53.478;6.158;2023-02-04T01:23:43;7.00;99.90
51500;DHT22;39101;53.478;6.158;2023-02-04T01:26:08;7.10;99.90
51500;DHT22;39101;53.478;6.158;2023-02-04T01:28:34;7.20;99.90
51500;DHT22;39101;53.478;6.158;2023-02-04T01:31:00;7.10;99.90
51500;DHT22;39101;53.478;6.158;2023-02-04T01:33:25;7.00;99.90
51500;DHT22;39101;53.478;6.158;2023-02-04T01:35:51;6.90;99.90
51500;DHT22;39101;53.478;6.158;2023-02-04T01:38:17;6.90;99.90
51500;DHT22;39101;53.478;6.158;2023-02-04T01:40:42;7.10;99.90
51500;DHT22;39101;53.478;6.158;2023-02-04T01:43:09;6.90;99.90
51500;DHT22;39101;53.478;6.158;2023-02-04T01:45:35;7.10;99.90
51500;DHT22;39101;53.478;6.158;2023-02-04T01:48:03;7.10;99.90
51500;DHT22;39101;53.478;6.158;2023-02-04T01:50:29;7.00;99.90
51500;DHT22;39101;53.478;6.158;2023-02-04T01:52:55;6.90;99.90
51500;DHT22;39101;53.478;6.158;2023-02-04T01:55:25;7.20;99.90
51500;DHT22;39101;53.478;6.158;2023-02-04T01:57:51;7.10;99.90
51500;DHT22;39101;53.478;6.158;2023-02-04T02:00:22;6.90;99.90
51500;DHT22;39101;53.478;6.158;2023-02-04T02:02:50;7.00;99.90
51500;DHT22;39101;53.478;6.158;2023-02-04T02:08:17;7.00;99.90
51500;DHT22;39101;53.478;6.158;2023-02-04T02:10:45;7.00;99.90
51500;DHT22;39101;53.478;6.158;2023-02-04T02:13:14;6.80;99.90
51500;DHT22;39101;53.478;6.158;2023-02-04T02:15:40;6.80;99.90
51500;DHT22;39101;53.478;6.158;2023-02-04T02:18:07;6.80;99.90
51500;DHT22;39101;53.478;6.158;2023-02-04T02:20:33;6.90;99.90
51500;DHT22;39101;53.478;6.158;2023-02-04T02:25:43;6.70;99.90
51500;DHT22;39101;53.478;6.158;2023-02-04T02:28:12;6.90;99.90
51500;DHT22;39101;53.478;6.158;2023-02-04T02:30:39;7.10;99.90
51500;DHT22;39101;53.478;6.158;2023-02-04T02:33:05;6.90;99.90
51500;DHT22;39101;53.478;6.158;2023-02-04T02:35:31;7.00;99.90
51500;DHT22;39101;53.478;6.158;2023-02-04T02:37:57;6.90;99.90
51500;DHT22;39101;53.478;6.158;2023-02-04T02:40:23;6.80;99.90
51500;DHT22;39101;53.478;6.158;2023-02-04T02:42:50;6.70;99.90
51500;DHT22;39101;53.478;6.158;2023-02-04T02:45:23;6.80;99.90
51500;DHT22;39101;53.478;6.158;2023-02-04T02:47:50;6.60;99.90
51500;DHT22;39101;53.478;6.158;2023-02-04T02:50:18;7.00;99.90
51500;DHT22;39101;53.478;6.158;2023-02-04T02:52:45;6.70;99.90
51500;DHT22;39101;53.478;6.158;2023-02-04T02:55:16;6.80;99.90
51500;DHT22;39101;53.478;6.158;2023-02-04T02:57:43;6.80;99.90
51500;DHT22;39101;53.478;6.158;2023-02-04T03:00:18;6.70;99.90
51500;DHT22;39101;53.478;6.158;2023-02-04T03:02:55;6.80;99.90
51500;DHT22;39101;53.478;6.158;2023-02-04T03:05:22;7.10;99.90
51500;DHT22;39101;53.478;6.158;2023-02-04T03:07:48;6.60;99.90
51500;DHT22;39101;53.478;6.158;2023-02-04T03:10:15;6.70;99.90
51500;DHT22;39101;53.478;6.158;2023-02-04T03:12:42;6.70;99.90
51500;DHT22;39101;53.478;6.158;2023-02-04T03:15:08;6.70;99.90
51500;DHT22;39101;53.478;6.158;2023-02-04T03:17:34;6.50;99.90
51500;DHT22;39101;53.478;6.158;2023-02-04T03:20:00;6.90;99.90
51500;DHT22;39101;53.478;6.158;2023-02-04T03:22:26;6.50;99.90
51500;DHT22;39101;53.478;6.158;2023-02-04T03:24:52;6.70;99.90
51500;DHT22;39101;53.478;6.158;2023-02-04T03:27:18;6.80;99.90
51500;DHT22;39101;53.478;6.158;2023-02-04T03:29:44;6.40;99.90
51500;DHT22;39101;53.478;6.158;2023-02-04T03:32:10;6.40;99.90
51500;DHT22;39101;53.478;6.158;2023-02-04T03:34:36;6.30;99.90
51500;DHT22;39101;53.478;6.158;2023-02-04T03:37:02;6.40;99.90
51500;DHT22;39101;53.478;6.158;2023-02-04T03:39:27;6.40;99.90
51500;DHT22;39101;53.478;6.158;2023-02-04T03:41:53;6.20;99.90
51500;DHT22;39101;53.478;6.158;2023-02-04T03:44:19;6.10;99.90
51500;DHT22;39101;53.478;6.158;2023-02-04T03:46:46;6.30;99.90
51500;DHT22;39101;53.478;6.158;2023-02-04T03:49:11;6.10;99.90
51500;DHT22;39101;53.478;6.158;2023-02-04T03:51:37;6.30;99.90
51500;DHT22;39101;53.478;6.158;2023-02-04T03:54:03;6.10;99.90
51500;DHT22;39101;53.478;6.158;2023-02-04T03:56:28;6.20;99.90
51500;DHT22;39101;53.478;6.158;2023-02-04T03:58:54;6.10;99.90
51500;DHT22;39101;53.478;6.158;2023-02-04T04:01:20;5.90;99.90
51500;DHT22;39101;53.478;6.158;2023-02-04T04:03:45;6.10;99.90
51500;DHT22;39101;53.478;6.158;2023-02-04T04:06:11;6.30;99.90
51500;DHT22;39101;53.478;6.158;2023-02-04T04:08:37;6.30;99.90
51500;DHT22;39101;53.478;6.158;2023-02-04T04:11:03;5.90;99.90
51500;DHT22;39101;53.478;6.158;2023-02-04T04:13:29;5.90;99.90
51500;DHT22;39101;53.478;6.158;2023-02-04T04:15:54;5.70;99.90
51500;DHT22;39101;53.478;6.158;2023-02-04T04:18:20;5.70;99.90
51500;DHT22;39101;53.478;6.158;2023-02-04T04:20:46;5.80;99.90
51500;DHT22;39101;53.478;6.158;2023-02-04T04:23:12;5.90;99.90
51500;DHT22;39101;53.478;6.158;2023-02-04T04:25:37;5.70;99.90
51500;DHT22;39101;53.478;6.158;2023-02-04T04:28:03;5.70;99.90
51500;DHT22;39101;53.478;6.158;2023-02-04T04:30:29;5.60;99.90
51500;DHT22;39101;53.478;6.158;2023-02-04T04:32:54;5.80;99.90
51500;DHT22;39101;53.478;6.158;2023-02-04T04:35:20;5.70;99.90
51500;DHT22;39101;53.478;6.158;2023-02-04T04:37:46;5.70;99.90
51500;DHT22;39101;53.478;6.158;2023-02-04T04:40:12;5.80;99.90
51500;DHT22;39101;53.478;6.158;2023-02-04T04:42:37;5.60;99.90
51500;DHT22;39101;53.478;6.158;2023-02-04T04:45:06;5.70;99.90
51500;DHT22;39101;53.478;6.158;2023-02-04T04:47:32;5.60;99.90
51500;DHT22;39101;53.478;6.158;2023-02-04T04:49:58;5.50;99.90
51500;DHT22;39101;53.478;6.158;2023-02-04T04:52:24;5.70;99.90
51500;DHT22;39101;53.478;6.158;2023-02-04T04:54:50;5.50;99.90
51500;DHT22;39101;53.478;6.158;2023-02-04T04:57:15;5.50;99.90
51500;DHT22;39101;53.478;6.158;2023-02-04T04:59:41;5.50;99.90
51500;DHT22;39101;53.478;6.158;2023-02-04T05:02:07;5.50;99.90
51500;DHT22;39101;53.478;6.158;2023-02-04T05:04:32;5.70;99.90
51500;DHT22;39101;53.478;6.158;2023-02-04T05:06:58;5.40;99.90
51500;DHT22;39101;53.478;6.158;2023-02-04T05:09:24;5.50;99.90
51500;DHT22;39101;53.478;6.158;2023-02-04T05:11:49;5.40;99.90
51500;DHT22;39101;53.478;6.158;2023-02-04T05:14:15;5.40;99.90
51500;DHT22;39101;53.478;6.158;2023-02-04T05:16:40;5.50;99.90
51500;DHT22;39101;53.478;6.158;2023-02-04T05:19:06;5.50;99.90
51500;DHT22;39101;53.478;6.158;2023-02-04T05:21:32;5.50;99.90
51500;DHT22;39101;53.478;6.158;2023-02-04T05:23:57;5.30;99.90
51500;DHT22;39101;53.478;6.158;2023-02-04T05:26:23;5.40;99.90
51500;DHT22;39101;53.478;6.158;2023-02-04T05:28:49;5.40;99.90
51500;DHT22;39101;53.478;6.158;2023-02-04T05:31:14;5.40;99.90
51500;DHT22;39101;53.478;6.158;2023-02-04T05:33:40;5.30;99.90
51500;DHT22;39101;53.478;6.158;2023-02-04T05:36:06;5.50;99.90
51500;DHT22;39101;53.478;6.158;2023-02-04T05:38:31;5.30;99.90
51500;DHT22;39101;53.478;6.158;2023-02-04T05:40:57;5.50;99.90
51500;DHT22;39101;53.478;6.158;2023-02-04T05:43:23;5.60;99.90
51500;DHT22;39101;53.478;6.158;2023-02-04T05:45:48;5.60;99.90
51500;DHT22;39101;53.478;6.158;2023-02-04T05:48:14;5.30;99.90
51500;DHT22;39101;53.478;6.158;2023-02-04T05:50:40;5.20;99.90
51500;DHT22;39101;53.478;6.158;2023-02-04T05:53:05;5.50;99.90
51500;DHT22;39101;53.478;6.158;2023-02-04T05:55:31;5.50;99.90
51500;DHT22;39101;53.478;6.158;2023-02-04T05:57:56;5.50;99.90
51500;DHT22;39101;53.478;6.158;2023-02-04T06:00:22;5.50;99.90
51500;DHT22;39101;53.478;6.158;2023-02-04T06:02:48;5.20;99.90
51500;DHT22;39101;53.478;6.158;2023-02-04T06:05:14;5.20;99.90
51500;DHT22;39101;53.478;6.158;2023-02-04T06:07:39;5.50;99.90
51500;DHT22;39101;53.478;6.158;2023-02-04T06:10:05;5.20;99.90
51500;DHT22;39101;53.478;6.158;2023-02-04T06:12:32;5.40;99.90
51500;DHT22;39101;53.478;6.158;2023-02-04T06:14:58;5.20;99.90
51500;DHT22;39101;53.478;6.158;2023-02-04T06:17:23;5.30;99.90
51500;DHT22;39101;53.478;6.158;2023-02-04T06:19:49;5.40;99.90
51500;DHT22;39101;53.478;6.158;2023-02-04T06:22:15;5.50;99.90
51500;DHT22;39101;53.478;6.158;2023-02-04T06:24:40;5.20;99.90
51500;DHT22;39101;53.478;6.158;2023-02-04T06:27:06;5.30;99.90
51500;DHT22;39101;53.478;6.158;2023-02-04T06:29:31;5.40;99.90
51500;DHT22;39101;53.478;6.158;2023-02-04T06:31:57;5.40;99.90
51500;DHT22;39101;53.478;6.158;2023-02-04T06:34:23;5.30;99.90
51500;DHT22;39101;53.478;6.158;2023-02-04T06:36:49;5.30;99.90
51500;DHT22;39101;53.478;6.158;2023-02-04T06:39:14;5.20;99.90
51500;DHT22;39101;53.478;6.158;2023-02-04T06:41:40;5.20;99.90
51500;DHT22;39101;53.478;6.158;2023-02-04T06:44:05;5.30;99.90
51500;DHT22;39101;53.478;6.158;2023-02-04T06:46:32;5.30;99.90
51500;DHT22;39101;53.478;6.158;2023-02-04T06:48:57;5.20;99.90
51500;DHT22;39101;53.478;6.158;2023-02-04T06:51:23;5.30;99.90
51500;DHT22;39101;53.478;6.158;2023-02-04T06:53:49;5.00;99.90
51500;DHT22;39101;53.478;6.158;2023-02-04T06:56:14;5.10;99.90
51500;DHT22;39101;53.478;6.158;2023-02-04T06:58:40;5.00;99.90
51500;DHT22;39101;53.478;6.158;2023-02-04T07:01:06;5.00;99.90
51500;DHT22;39101;53.478;6.158;2023-02-04T07:03:32;5.00;99.90
51500;DHT22;39101;53.478;6.158;2023-02-04T07:05:57;5.00;99.90
51500;DHT22;39101;53.478;6.158;2023-02-04T07:08:23;5.10;99.90
51500;DHT22;39101;53.478;6.158;2023-02-04T07:10:48;5.30;99.90
51500;DHT22;39101;53.478;6.158;2023-02-04T07:13:14;5.30;99.90
51500;DHT22;39101;53.478;6.158;2023-02-04T07:15:40;5.10;99.90
51500;DHT22;39101;53.478;6.158;2023-02-04T07:18:05;5.00;99.90
51500;DHT22;39101;53.478;6.158;2023-02-04T07:20:31;5.20;99.90
51500;DHT22;39101;53.478;6.158;2023-02-04T07:22:57;5.30;99.90
51500;DHT22;39101;53.478;6.158;2023-02-04T07:25:22;5.20;99.90
51500;DHT22;39101;53.478;6.158;2023-02-04T07:27:48;5.20;99.90
51500;DHT22;39101;53.478;6.158;2023-02-04T07:30:14;5.10;99.90
51500;DHT22;39101;53.478;6.158;2023-02-04T07:32:39;5.10;99.90
51500;DHT22;39101;53.478;6.158;2023-02-04T07:35:05;5.00;99.90
51500;DHT22;39101;53.478;6.158;2023-02-04T07:37:31;5.30;99.90
51500;DHT22;39101;53.478;6.158;2023-02-04T07:39:57;5.20;99.90
51500;DHT22;39101;53.478;6.158;2023-02-04T07:42:22;5.30;99.90
51500;DHT22;39101;53.478;6.158;2023-02-04T07:44:48;5.00;99.90
51500;DHT22;39101;53.478;6.158;2023-02-04T07:47:14;5.10;99.90
51500;DHT22;39101;53.478;6.158;2023-02-04T07:49:39;5.10;99.90
51500;DHT22;39101;53.478;6.158;2023-02-04T07:52:05;5.10;99.90
51500;DHT22;39101;53.478;6.158;2023-02-04T07:54:31;5.00;99.90
51500;DHT22;39101;53.478;6.158;2023-02-04T07:56:56;5.30;99.90
51500;DHT22;39101;53.478;6.158;2023-02-04T07:59:22;5.20;99.90
51500;DHT22;39101;53.478;6.158;2023-02-04T08:01:48;5.50;99.90
51500;DHT22;39101;53.478;6.158;2023-02-04T08:04:14;5.10;99.90
51500;DHT22;39101;53.478;6.158;2023-02-04T08:06:40;5.20;99.90
51500;DHT22;39101;53.478;6.158;2023-02-04T08:09:05;5.40;99.90
51500;DHT22;39101;53.478;6.158;2023-02-04T08:11:31;5.30;99.90
51500;DHT22;39101;53.478;6.158;2023-02-04T08:13:56;5.40;99.90
51500;DHT22;39101;53.478;6.158;2023-02-04T08:16:22;5.30;99.90
51500;DHT22;39101;53.478;6.158;2023-02-04T08:18:48;5.40;99.90
51500;DHT22;39101;53.478;6.158;2023-02-04T08:21:13;5.30;99.90
51500;DHT22;39101;53.478;6.158;2023-02-04T08:23:39;5.50;99.90
51500;DHT22;39101;53.478;6.158;2023-02-04T08:26:09;5.50;99.90
51500;DHT22;39101;53.478;6.158;2023-02-04T08:28:36;5.50;99.90
51500;DHT22;39101;53.478;6.158;2023-02-04T08:31:05;5.40;99.90
51500;DHT22;39101;53.478;6.158;2023-02-04T08:33:31;5.50;99.90
51500;DHT22;39101;53.478;6.158;2023-02-04T08:35:57;5.20;99.90
51500;DHT22;39101;53.478;6.158;2023-02-04T08:38:22;5.20;99.90
51500;DHT22;39101;53.478;6.158;2023-02-04T08:40:48;5.40;99.90
51500;DHT22;39101;53.478;6.158;2023-02-04T08:43:14;5.20;99.90
51500;DHT22;39101;53.478;6.158;2023-02-04T08:45:39;5.20;99.90
51500;DHT22;39101;53.478;6.158;2023-02-04T08:48:05;5.30;99.90
51500;DHT22;39101;53.478;6.158;2023-02-04T08:50:34;5.30;99.90
51500;DHT22;39101;53.478;6.158;2023-02-04T08:52:59;5.30;99.90
51500;DHT22;39101;53.478;6.158;2023-02-04T08:55:25;5.50;99.90
51500;DHT22;39101;53.478;6.158;2023-02-04T08:57:50;5.50;99.90
51500;DHT22;39101;53.478;6.158;2023-02-04T09:00:16;5.50;99.90
51500;DHT22;39101;53.478;6.158;2023-02-04T09:02:43;5.50;99.90
51500;DHT22;39101;53.478;6.158;2023-02-04T09:05:08;5.50;99.90
51500;DHT22;39101;53.478;6.158;2023-02-04T09:07:34;5.30;99.90
51500;DHT22;39101;53.478;6.158;2023-02-04T09:09:59;5.30;99.90
51500;DHT22;39101;53.478;6.158;2023-02-04T09:12:25;5.40;99.90
51500;DHT22;39101;53.478;6.158;2023-02-04T09:14:51;5.40;99.90
51500;DHT22;39101;53.478;6.158;2023-02-04T09:17:16;5.70;99.90
51500;DHT22;39101;53.478;6.158;2023-02-04T09:19:43;5.70;99.90
51500;DHT22;39101;53.478;6.158;2023-02-04T09:22:09;5.80;99.90
51500;DHT22;39101;53.478;6.158;2023-02-04T09:24:34;5.80;99.90
51500;DHT22;39101;53.478;6.158;2023-02-04T09:27:00;5.80;99.90
51500;DHT22;39101;53.478;6.158;2023-02-04T09:29:26;5.60;99.90
51500;DHT22;39101;53.478;6.158;2023-02-04T09:31:51;5.60;99.90
51500;DHT22;39101;53.478;6.158;2023-02-04T09:34:17;5.70;99.90
51500;DHT22;39101;53.478;6.158;2023-02-04T09:36:43;5.60;99.90
51500;DHT22;39101;53.478;6.158;2023-02-04T09:39:08;5.80;99.90
51500;DHT22;39101;53.478;6.158;2023-02-04T09:41:39;5.80;99.90
51500;DHT22;39101;53.478;6.158;2023-02-04T09:44:11;6.00;99.90
51500;DHT22;39101;53.478;6.158;2023-02-04T09:46:38;6.10;99.90
51500;DHT22;39101;53.478;6.158;2023-02-04T09:49:04;6.30;99.90
51500;DHT22;39101;53.478;6.158;2023-02-04T09:51:32;6.20;99.90
51500;DHT22;39101;53.478;6.158;2023-02-04T09:54:08;6.30;99.90
51500;DHT22;39101;53.478;6.158;2023-02-04T09:56:35;6.20;99.90
51500;DHT22;39101;53.478;6.158;2023-02-04T09:59:03;6.30;99.90
51500;DHT22;39101;53.478;6.158;2023-02-04T10:01:31;6.10;99.90
51500;DHT22;39101;53.478;6.158;2023-02-04T10:03:59;6.30;99.90
51500;DHT22;39101;53.478;6.158;2023-02-04T10:06:25;6.20;99.90
51500;DHT22;39101;53.478;6.158;2023-02-04T10:08:51;6.40;99.90
51500;DHT22;39101;53.478;6.158;2023-02-04T10:11:19;6.10;99.90
51500;DHT22;39101;53.478;6.158;2023-02-04T10:13:48;6.20;99.90
51500;DHT22;39101;53.478;6.158;2023-02-04T10:16:21;6.10;99.90
51500;DHT22;39101;53.478;6.158;2023-02-04T10:18:48;6.60;99.90
51500;DHT22;39101;53.478;6.158;2023-02-04T10:21:20;6.30;99.90
51500;DHT22;39101;53.478;6.158;2023-02-04T10:23:50;6.20;99.90
51500;DHT22;39101;53.478;6.158;2023-02-04T10:26:26;6.20;99.90
51500;DHT22;39101;53.478;6.158;2023-02-04T10:29:01;6.40;99.90
51500;DHT22;39101;53.478;6.158;2023-02-04T10:31:38;6.50;99.90
51500;DHT22;39101;53.478;6.158;2023-02-04T10:34:08;6.40;99.90
51500;DHT22;39101;53.478;6.158;2023-02-04T10:36:34;6.60;99.90
51500;DHT22;39101;53.478;6.158;2023-02-04T10:39:20;6.50;99.90
51500;DHT22;39101;53.478;6.158;2023-02-04T10:41:57;6.70;99.90
51500;DHT22;39101;53.478;6.158;2023-02-04T10:44:30;6.90;99.90
51500;DHT22;39101;53.478;6.158;2023-02-04T10:47:05;7.00;99.90
51500;DHT22;39101;53.478;6.158;2023-02-04T10:49:33;6.80;99.90
51500;DHT22;39101;53.478;6.158;2023-02-04T10:52:00;7.00;99.90
51500;DHT22;39101;53.478;6.158;2023-02-04T10:54:34;6.90;99.90
51500;DHT22;39101;53.478;6.158;2023-02-04T10:57:07;6.90;99.90
51500;DHT22;39101;53.478;6.158;2023-02-04T10:59:38;6.90;99.90
51500;DHT22;39101;53.478;6.158;2023-02-04T11:02:26;6.90;99.90
51500;DHT22;39101;53.478;6.158;2023-02-04T11:04:54;7.00;99.90
51500;DHT22;39101;53.478;6.158;2023-02-04T11:07:21;7.10;99.90
51500;DHT22;39101;53.478;6.158;2023-02-04T11:09:48;7.30;99.90
51500;DHT22;39101;53.478;6.158;2023-02-04T11:12:22;7.30;99.90
51500;DHT22;39101;53.478;6.158;2023-02-04T11:14:57;7.30;99.90
51500;DHT22;39101;53.478;6.158;2023-02-04T11:17:30;7.30;99.90
51500;DHT22;39101;53.478;6.158;2023-02-04T11:19:57;7.40;99.90
51500;DHT22;39101;53.478;6.158;2023-02-04T11:22:43;7.20;99.90
51500;DHT22;39101;53.478;6.158;2023-02-04T11:25:33;7.20;99.90
51500;DHT22;39101;53.478;6.158;2023-02-04T11:28:00;7.30;99.90
51500;DHT22;39101;53.478;6.158;2023-02-04T11:30:37;7.20;99.90
51500;DHT22;39101;53.478;6.158;2023-02-04T11:33:05;7.30;99.90
51500;DHT22;39101;53.478;6.158;2023-02-04T11:35:31;7.20;99.90
51500;DHT22;39101;53.478;6.158;2023-02-04T11:37:57;7.20;99.90
51500;DHT22;39101;53.478;6.158;2023-02-04T11:40:30;7.20;99.90
51500;DHT22;39101;53.478;6.158;2023-02-04T11:42:58;7.30;99.90
51500;DHT22;39101;53.478;6.158;2023-02-04T11:45:33;7.50;99.90
51500;DHT22;39101;53.478;6.158;2023-02-04T11:48:03;7.40;99.90
51500;DHT22;39101;53.478;6.158;2023-02-04T11:50:33;7.50;99.90
51500;DHT22;39101;53.478;6.158;2023-02-04T11:53:03;7.50;99.90
51500;DHT22;39101;53.478;6.158;2023-02-04T11:55:30;7.40;99.90
51500;DHT22;39101;53.478;6.158;2023-02-04T11:57:56;7.40;99.90
51500;DHT22;39101;53.478;6.158;2023-02-04T12:00:31;7.50;99.90
51500;DHT22;39101;53.478;6.158;2023-02-04T12:02:59;7.50;99.90
51500;DHT22;39101;53.478;6.158;2023-02-04T12:11:50;7.70;99.90
51500;DHT22;39101;53.478;6.158;2023-02-04T12:14:16;7.70;99.90
51500;DHT22;39101;53.478;6.158;2023-02-04T12:16:46;7.60;99.90
51500;DHT22;39101;53.478;6.158;2023-02-04T12:19:14;7.70;99.90
51500;DHT22;39101;53.478;6.158;2023-02-04T12:21:40;7.70;99.90
51500;DHT22;39101;53.478;6.158;2023-02-04T12:24:05;7.70;99.90
51500;DHT22;39101;53.478;6.158;2023-02-04T12:26:31;7.50;99.90
51500;DHT22;39101;53.478;6.158;2023-02-04T12:28:57;7.60;99.90
51500;DHT22;39101;53.478;6.158;2023-02-04T12:31:25;7.50;99.90
51500;DHT22;39101;53.478;6.158;2023-02-04T12:33:51;7.60;99.90
51500;DHT22;39101;53.478;6.158;2023-02-04T12:36:19;7.60;99.90
51500;DHT22;39101;53.478;6.158;2023-02-04T12:38:44;7.50;99.90
51500;DHT22;39101;53.478;6.158;2023-02-04T12:41:10;7.50;99.90
51500;DHT22;39101;53.478;6.158;2023-02-04T12:43:36;7.50;99.90
51500;DHT22;39101;53.478;6.158;2023-02-04T12:46:01;7.50;99.90
51500;DHT22;39101;53.478;6.158;2023-02-04T12:48:27;7.50;99.90
51500;DHT22;39101;53.478;6.158;2023-02-04T12:50:53;7.30;99.90
51500;DHT22;39101;53.478;6.158;2023-02-04T12:53:18;7.50;99.90
51500;DHT22;39101;53.478;6.158;2023-02-04T12:55:44;7.50;99.90
51500;DHT22;39101;53.478;6.158;2023-02-04T12:58:10;7.50;99.90
51500;DHT22;39101;53.478;6.158;2023-02-04T13:00:36;7.60;99.90
51500;DHT22;39101;53.478;6.158;2023-02-04T13:03:02;7.70;99.90
51500;DHT22;39101;53.478;6.158;2023-02-04T13:05:27;7.80;99.90
51500;DHT22;39101;53.478;6.158;2023-02-04T13:07:53;7.80;99.90
51500;DHT22;39101;53.478;6.158;2023-02-04T13:10:19;7.90;99.90
51500;DHT22;39101;53.478;6.158;2023-02-04T13:12:46;8.10;99.90
51500;DHT22;39101;53.478;6.158;2023-02-04T13:15:12;8.10;99.90
51500;DHT22;39101;53.478;6.158;2023-02-04T13:17:38;8.00;99.90
51500;DHT22;39101;53.478;6.158;2023-02-04T13:20:04;8.00;99.90
51500;DHT22;39101;53.478;6.158;2023-02-04T13:22:30;7.90;99.90
51500;DHT22;39101;53.478;6.158;2023-02-04T13:24:55;7.90;99.90
51500;DHT22;39101;53.478;6.158;2023-02-04T13:27:21;7.90;99.90
51500;DHT22;39101;53.478;6.158;2023-02-04T13:29:47;7.90;99.90
51500;DHT22;39101;53.478;6.158;2023-02-04T13:32:12;7.80;99.90
51500;DHT22;39101;53.478;6.158;2023-02-04T13:34:38;7.80;99.90
51500;DHT22;39101;53.478;6.158;2023-02-04T13:37:04;7.80;99.90
51500;DHT22;39101;53.478;6.158;2023-02-04T13:39:29;7.80;99.90
51500;DHT22;39101;53.478;6.158;2023-02-04T13:41:55;7.80;99.90
51500;DHT22;39101;53.478;6.158;2023-02-04T13:44:21;7.90;99.90
51500;DHT22;39101;53.478;6.158;2023-02-04T13:46:46;7.90;99.90
51500;DHT22;39101;53.478;6.158;2023-02-04T13:49:12;7.80;99.90
51500;DHT22;39101;53.478;6.158;2023-02-04T13:51:37;7.90;99.90
51500;DHT22;39101;53.478;6.158;2023-02-04T13:54:03;7.80;99.90
51500;DHT22;39101;53.478;6.158;2023-02-04T13:56:29;7.80;99.90
51500;DHT22;39101;53.478;6.158;2023-02-04T13:58:57;7.80;99.90
51500;DHT22;39101;53.478;6.158;2023-02-04T14:01:23;7.60;99.90
51500;DHT22;39101;53.478;6.158;2023-02-04T14:03:49;7.60;99.90
51500;DHT22;39101;53.478;6.158;2023-02-04T14:06:14;7.50;99.90
51500;DHT22;39101;53.478;6.158;2023-02-04T14:08:40;7.50;99.90
51500;DHT22;39101;53.478;6.158;2023-02-04T14:11:06;7.50;99.90
51500;DHT22;39101;53.478;6.158;2023-02-04T14:13:32;7.50;99.90
51500;DHT22;39101;53.478;6.158;2023-02-04T14:15:57;7.40;99.90
51500;DHT22;39101;53.478;6.158;2023-02-04T14:18:23;7.30;99.90
51500;DHT22;39101;53.478;6.158;2023-02-04T14:20:49;7.40;99.90
51500;DHT22;39101;53.478;6.158;2023-02-04T14:23:14;7.40;99.90
51500;DHT22;39101;53.478;6.158;2023-02-04T14:25:40;7.40;99.90
51500;DHT22;39101;53.478;6.158;2023-02-04T14:28:06;7.60;99.90
51500;DHT22;39101;53.478;6.158;2023-02-04T14:30:32;7.70;99.90
51500;DHT22;39101;53.478;6.158;2023-02-04T14:32:58;7.90;99.90
51500;DHT22;39101;53.478;6.158;2023-02-04T14:35:24;8.10;99.90
51500;DHT22;39101;53.478;6.158;2023-02-04T14:37:50;8.60;99.90
51500;DHT22;39101;53.478;6.158;2023-02-04T14:40:17;8.90;99.90
51500;DHT22;39101;53.478;6.158;2023-02-04T14:42:44;9.00;99.90
51500;DHT22;39101;53.478;6.158;2023-02-04T14:45:11;9.10;99.90
51500;DHT22;39101;53.478;6.158;2023-02-04T14:47:38;8.90;99.90
51500;DHT22;39101;53.478;6.158;2023-02-04T14:50:14;8.60;99.90
51500;DHT22;39101;53.478;6.158;2023-02-04T14:52:40;8.40;99.90
51500;DHT22;39101;53.478;6.158;2023-02-04T14:55:06;8.40;99.90
51500;DHT22;39101;53.478;6.158;2023-02-04T14:57:34;8.20;99.90
51500;DHT22;39101;53.478;6.158;2023-02-04T14:59:59;8.10;99.90
51500;DHT22;39101;53.478;6.158;2023-02-04T15:02:25;8.00;99.90
51500;DHT22;39101;53.478;6.158;2023-02-04T15:04:50;7.90;99.90
51500;DHT22;39101;53.478;6.158;2023-02-04T15:07:16;7.90;99.90
51500;DHT22;39101;53.478;6.158;2023-02-04T15:09:42;7.70;99.90
51500;DHT22;39101;53.478;6.158;2023-02-04T15:12:09;7.80;99.90
51500;DHT22;39101;53.478;6.158;2023-02-04T15:14:35;7.60;99.90
51500;DHT22;39101;53.478;6.158;2023-02-04T15:17:01;7.50;99.90
51500;DHT22;39101;53.478;6.158;2023-02-04T15:19:26;7.50;99.90
51500;DHT22;39101;53.478;6.158;2023-02-04T15:21:52;7.50;99.90
51500;DHT22;39101;53.478;6.158;2023-02-04T15:24:18;7.50;99.90
51500;DHT22;39101;53.478;6.158;2023-02-04T15:26:44;7.40;99.90
51500;DHT22;39101;53.478;6.158;2023-02-04T15:29:10;7.30;99.90
51500;DHT22;39101;53.478;6.158;2023-02-04T15:31:35;7.40;99.90
51500;DHT22;39101;53.478;6.158;2023-02-04T15:34:02;7.40;99.90
51500;DHT22;39101;53.478;6.158;2023-02-04T15:36:27;7.30;99.90
51500;DHT22;39101;53.478;6.158;2023-02-04T15:38:53;7.20;99.90
51500;DHT22;39101;53.478;6.158;2023-02-04T15:41:19;7.30;99.90
51500;DHT22;39101;53.478;6.158;2023-02-04T15:43:44;7.20;99.90
51500;DHT22;39101;53.478;6.158;2023-02-04T15:46:10;7.20;99.90
51500;DHT22;39101;53.478;6.158;2023-02-04T15:48:36;7.20;99.90
51500;DHT22;39101;53.478;6.158;2023-02-04T15:51:01;7.10;99.90
51500;DHT22;39101;53.478;6.158;2023-02-04T15:53:27;7.00;99.90